Report created: 2010-07-14T09:40:28+02:00

17th FAI European HG Class 1 Championship Ager 2010

2010-07-12 to 2010-07-23

TASK 2

2010-07-13 TASK2

Race to Goal 89,0 km

Provisional

No Dist. Id Radius
(meters)
Coordinates Open Close
1 0,0 km B01156 400 Lat: 42.04632 Lon: 0.74583 13:30:00+02:00 16:45:00+02:00
2 SS 3,0 km B33072 30000 Lat: 42.31495 Lon: 0.56363 14:30:00+02:00 20:00:00+02:00
3 32,6 km B33072 400 Lat: 42.31495 Lon: 0.56363 14:30:00+02:00 20:00:00+02:00
4 65,4 km B06087 400 Lat: 42.1053 Lon: 0.85672 14:30:00+02:00 20:00:00+02:00
5 80,7 km B17066 400 Lat: 42.11825 Lon: 1.0457 14:30:00+02:00 20:00:00+02:00
6 ES 89,0 km G03 400 Lat: 42.14444 Lon: 0.94639 14:30:00+02:00 20:00:00+02:00
StartGate(s): 14:30:00+02:00, 15:00:00+02:00, 15:30:00+02:00

# Id Name Nat Glider Sponsor SS ES Time km/h Dist. Dist.
Points
Lead.
Points
Time
Points
Arr.
Pos
Points
Total
1 7 Gerolf Heinrichs M AUT Moyes Litespeed Litespeed RS-3.5 15:00:00 16:57:20 01:57:20 44,0 89,04 368,4 39,3 442,1 78,9 929
2 28 Blay Olmos Quesada (Jnr) M ESP Moyes RS 3.5 15:00:00 16:58:05 01:58:05 43,7 89,04 368,4 40,2 423,1 76,5 908
3 1 Jon Durand Jnr M AUS Moyes Litespeed RS 3,5 15:00:00 17:06:09 02:06:09 40,9 89,04 368,4 35,6 343,7 71,8 820
4 40 Wolfgang Siess M AUT Wills Wing T2C 154 15:00:00 17:06:00 02:06:00 41,0 89,04 368,4 30,7 344,8 74,1 818
5 6 Martin Harri M SUI Moyes Litespeed RS 3.5 15:00:00 17:07:13 02:07:13 40,6 89,04 368,4 37,8 335,9 65,2 807
6 19 Roberto Nichele M SUI Wills Wing T2C-144 15:00:00 17:07:10 02:07:10 40,6 89,04 368,4 30,8 336,2 67,4 803
7 21 Christian Voiblet M SUI Aeros X 13,2 15:00:00 17:07:28 02:07:28 40,5 89,04 368,4 37,5 334,1 61,2 801
8 2 Primoz Gricar M SLO Aeros Combat 09 13,2 15:00:00 17:07:37 02:07:37 40,4 89,04 368,4 38,2 333,0 59,2 799
8 15 Attila Bertok M HUN Moyes Litespeed 15:00:00 17:07:05 02:07:05 40,6 89,04 368,4 23,9 336,8 69,6 799
10 23 Davide Guiducci M ITA LITESPEED S3,5 (Moyes) 15:00:00 17:07:21 02:07:21 40,5 89,04 368,4 31,8 334,9 63,2 798
11 10 Mario Alonzi M FRA Aeros Combat 09 13.2 15:00:00 17:07:53 02:07:53 40,4 89,04 368,4 40,1 331,1 53,7 793
12 17 Franz Herrmann M SUI Aeros Combat L14 15:00:00 17:07:50 02:07:50 40,4 89,04 368,4 30,8 331,5 57,3 788
13 11 Elio Cataldi M ITA Wills Wing T2C 15:00:00 17:07:52 02:07:52 40,4 89,04 368,4 30,5 331,3 55,5 786
14 8 Alessandro Ploner M ITA Laminar Z9 (Icaro) 15:00:00 17:08:23 02:08:23 40,2 89,04 368,4 40,8 327,7 47,1 784
15 42 Roland Wöhrle M GER Moyes Litespeed LS4 RS Spk. Hasl/Zell, Skyline 15:00:00 17:08:14 02:08:14 40,2 89,04 368,4 30,3 328,7 52,0 779
16 55 Grant Crossingham M GBR Moyes Litespeed RS 3.5 15:00:00 17:08:21 02:08:21 40,2 89,04 368,4 31,3 327,9 48,7 776
17 45 Dave Matthews M GBR Moyes Litespeed S 3.5 15:00:00 17:08:17 02:08:17 40,2 89,04 368,4 23,4 328,4 50,3 771
18 22 Gordon Rigg M GBR Moyes Litespeed S4 15:00:00 17:10:04 02:10:04 39,7 89,04 368,4 32,1 316,3 44,1 761
19 54 Filippo Oppici M ITA Moyes LITESPEED RS4 15:00:00 17:10:03 02:10:03 39,7 89,04 368,4 27,1 316,4 45,6 758
20 101 Julia Kucherenko F RUS Aeros Combat 12 09 15:00:00 17:10:04 02:10:04 39,7 89,04 368,4 28,2 316,3 44,1 757
21 91 Takashi Sunama M JAP Wills Wing T2 144 15:00:00 17:10:39 02:10:39 39,5 89,04 368,4 35,0 312,5 40,0 756
21 25 Raimund Kaiser M AUT Icaro2000 Laminar Z9 13.7 15:00:00 17:10:09 02:10:09 39,7 89,04 368,4 30,7 315,8 41,3 756
23 14 Balazs Ujhelyi M HUN Moyes Litespeed RS4 15:30:00 17:33:41 02:03:41 41,7 89,04 368,4 363,0 18,6 750
24 46 Lars Bo Johansen M Aeros Combat L15 15:00:00 17:11:09 02:11:09 39,4 89,04 368,4 28,8 309,3 37,5 744
25 13 Vladimir Leuskov M RUS Moyes Litespeed RS 15:00:00 17:11:15 02:11:15 39,3 89,04 368,4 28,3 308,6 36,3 742
26 26 Anton Moroder M ITA Laminar Z9 (Icaro) 15:00:00 17:10:56 02:10:56 39,4 89,04 368,4 23,1 310,7 38,7 741
27 50 Eric Mathurin M FRA Moyes Litespeed RS 4 15:00:00 17:13:12 02:13:12 38,7 89,04 368,4 34,5 296,4 32,0 731
28 9 Luis Rizo Salom M FRA Wills Wing T2C 144 15:00:00 17:13:00 02:13:00 38,8 89,04 368,4 24,7 297,7 34,1 725
29 16 Manfred Trimmel M AUT Aeros Combat 15:00:00 17:12:43 02:12:43 38,9 89,04 368,4 17,8 299,4 35,2 721
30 60 Matjaz Klemencic M SLO Aeros Combat L 15:00:00 17:13:14 02:13:14 38,7 89,04 368,4 24,7 296,2 31,1 720
31 73 Miroslav Cap M CZE Aeros Combat L14 15:00:00 17:13:10 02:13:10 38,8 89,04 368,4 20,0 296,7 33,0 718
32 34 Gerd Doenhuber M GER Moyes Litespeed LS RS 3.5 15:00:00 17:13:39 02:13:39 38,6 89,04 368,4 23,3 293,7 29,2 715
33 49 Francis Gafner M SUI Moyes Litespeed RS 3.5 15:00:00 17:13:52 02:13:52 38,6 89,04 368,4 24,8 292,4 28,4 714
34 58 Kathleen Rigg F GBR Moyes Litespeed S 4 15:00:00 17:14:24 02:14:24 38,4 89,04 368,4 27,9 289,2 27,6 713
35 24 David Shields M GBR Moyes Litespeed RS 4 15:00:00 17:15:20 02:15:20 38,1 89,04 368,4 28,6 283,7 26,1 707
36 53 Dan Vyhnalik M CZE Aeros Combat 09 14L 15:00:00 17:13:35 02:13:35 38,6 89,04 368,4 10,2 294,1 30,1 703
37 56 Massimo Turiaco M BRA Aeros Combat 15:30:00 17:40:30 02:10:30 39,5 89,04 368,4 313,5 17,6 700
38 52 James Stinnet M USA Wills Wing T2C 15:00:00 17:15:17 02:15:17 38,1 89,04 368,4 15,7 284,0 26,8 695
39 12 Christian Ciech M ITA Laminar Z9 (Icaro) 15:00:00 17:17:14 02:17:14 37,6 89,04 368,4 28,3 272,7 22,9 692
40 36 Laurent Thevenot M FRA Aeros combat-L 15:00:00 17:17:12 02:17:12 37,6 89,04 368,4 25,3 272,9 24,0 691
41 51 Petr Tucek M CZE Aeros COMBAT 14 L 15:00:00 17:16:06 02:16:06 37,9 89,04 368,4 17,3 279,2 25,4 690
41 3 Thomas Weissenberger M AUT Moyes Litespeed RS3.5 15:30:00 17:42:01 02:12:01 39,1 89,04 368,4 303,8 17,4 690
43 72 Rob In 'T Groen M NED Moyes Litespeed S 4 15:00:00 17:16:29 02:16:29 37,8 89,04 368,4 18,5 277,0 24,7 689
43 75 Petr Nedoma M CZE Aeros Combat 09 14,2 15:00:00 17:17:13 02:17:13 37,6 89,04 368,4 24,1 272,8 23,4 689
45 4 Carl Wallbank M GBR Moyes Litespeed RS 3.5 15:30:00 17:43:16 02:13:16 38,7 89,04 368,4 296,0 17,2 682
46 68 Tom Haagdorens M BEL Aeros Combat 09 15:00:00 17:18:25 02:18:25 37,3 89,04 368,4 22,1 266,1 21,8 678
47 155 Marc Utrillo M ESP Aeros Combat L09 15:00:00 17:19:05 02:19:05 37,1 89,04 368,4 23,1 262,4 21,3 675
48 63 Koos De Keijzer M NED Icaro Laminar Z08 15:00:00 17:17:51 02:17:51 37,4 89,04 368,4 14,5 269,2 22,3 674
48 20 Bruce Kavanagh M GBR Wills Wing T2C 144 Wills Wing, Brauniger, Airways 15:30:00 17:44:24 02:14:24 38,4 89,04 368,4 289,2 16,8 674
50 44 Walter Mayer M AUT Moyes Litespeed 15:00:00 17:20:47 02:20:47 36,7 89,04 368,4 5,1 253,1 20,9 648
50 33 Franc Peternel M SLO Aeros Combat 09 13,7 15:00:00 17:22:42 02:22:42 36,2 89,04 368,4 16,9 243,0 20,0 648
52 66 Zsolt Balogh M HUN Moyes Litespeed S 4.5 15:30:00 17:50:44 02:20:44 36,7 89,04 368,4 253,4 16,7 639
53 41 Andre Djamarani M GER Aeros Combat 14 - 2009 15:00:00 17:28:54 02:28:54 34,7 89,04 368,4 16,1 211,7 19,3 616
54 64 Alan Sattler M SLO Aeros Combat L 07 15:00:00 17:29:16 02:29:16 34,6 89,04 368,4 12,2 209,9 18,9 609
55 43 Anton Struganov M RUS Aeros Combat L 13 09 15:00:00 17:28:25 02:28:25 34,8 89,04 368,4 0,6 214,1 19,6 603
56 38 Artur Dzamikhov M RUS Aeros Combat 09 15:30:00 17:58:55 02:28:55 34,7 89,04 368,4 211,6 16,4 596
57 70 Jochen Zeischka M BEL Aeros Combat L 14.2 15:00:00 17:34:10 02:34:10 33,5 89,04 368,4 8,8 186,7 18,3 582
58 82 Hiroshi Onuma M JAP Icaro2000 Laminar 09 15:00:00 17:39:45 02:39:45 32,3 89,04 368,4 13,1 161,5 17,8 561
59 31 Joel Miron de Soto M ESP Aeros Combat L 12.8 15:00:00 17:39:12 02:39:12 32,4 89,04 368,4 4,8 164,0 18,1 555
60 37 Markus Ebenfeld M GER Icaro Laminar Zero 9 Team Icaro Fly & More 15:00:00 17:44:05 02:44:05 31,5 89,04 368,4 142,7 17,0 528
61 79 Sebastian Olifiruk M POL Moyes Litespeed S 3.5 14:30:00 17:21:31 02:51:31 30,1 89,04 368,4 17,0 111,8 20,4 518
62 30 Blay Olmos Ramos (Snr) M ESP Moyes RS 13 15:30:00 18:22:10 02:52:10 30,0 89,04 368,4 109,2 16,1 494
63 102 Natalia Petrova F RUS 15:30:00 18:22:46 02:52:46 29,9 89,04 368,4 106,7 16,0 491
64 35 Corinna Schwiegershausen F GER Moyes Litespeed S 3,5 15:30:00 18:23:26 02:53:26 29,8 89,04 368,4 104,1 15,9 488
65 5 Gianpietro Zin M FRA Icaro 2000 Laminar Z9 14.1 14:30:00 79,65 341,8 110,5 452
66 85 Tanno Rutten M NED Wills Wing T2 154 15:00:00 18:10:37 03:10:37 27,1 89,04 368,4 38,1 16,3 423
67 90 Emmanuel Felix-Faure M FRA Aeros combat-L 15:00:00 18:13:55 03:13:55 26,6 89,04 368,4 26,1 16,2 411
68 92 Alen Milosevic M CRO Aeros Combat L13 15:00:00 18:16:53 03:16:53 26,2 89,04 368,4 15,4 16,1 400
69 78 Jiri Nadvornik M CZE Aeros Combat L13 14:30:00 17:54:47 03:24:47 25,2 89,04 368,4 16,6 385
70 86 Tibor Borbely M HUN Moyes Litespeed S 5 15:00:00 18:23:46 03:23:46 25,3 89,04 368,4 15,9 384
70 29 Alvaro Idigoras molina M ESP Wills Wing T2C 15:00:00 18:24:06 03:24:06 25,3 89,04 368,4 15,8 384
72 103 Carole Tobler F SUI Moyes litespeed s 3.5 15:30:00 88,03 366,3 366
73 48 Oliver Barthelmes M GER Moyes Litespeed RS 4 15:30:00 81,24 347,4 347
74 18 Steve Blenkinsop M AUS Moyes Litespeed S 3.5 15:30:00 78,87 338,5 339
75 57 Larry Bunner M USA Wills Wing T2C 144 15:00:00 73,15 311,6 312
76 76 Maxim Sadovnikov M RUS Aeros Combat L 13 07 15:00:00 72,76 309,7 310
77 81 Dariusz Perenc M POL Icaro Laminar 09 15:00:00 70,06 294,3 294
78 77 Martin Van Helden M NED Icaro Laminar Z09 15:30:00 63,65 260,8 261
79 67 Petr Cejka M CZE Aeros Combat 09 13,2 15:30:00 50,31 214,3 214
80 83 Daphne Schelkers F NED Icaro Laminar Z09 15:00:00 37,98 179,8 180
81 95 Péter Szász M HUN Moyes Litespeed 3.5 15:00:00 37,03 176,9 177
82 80 Attila Kis M HUN Aeros Combat L13 14:30:00 26,73 140,6 141
83 74 Erik Van Keulen M NED Moyes Litespeed RS 3,5 15:00:00 23,90 129,9 130
84 71 Evgeny Kovalev M RUS Aeros Combat L-13 15:00:00 22,98 126,7 127
85 69 Didu Bartschi M SUI Aeros Combat L13 14:30:00 12,44 83,0 83
86 89 Amir Shalom M ISR Icaro Laminar Zero 9 15:00:00 12,07 81,5 82
87 87 Takamitsu Oga M JAP Icaro Laminar Z9 10,00 72,2 72
87 65 Maxim Usachev M RUS Combat Aeros L09 10,00 72,2 72
87 27 Pedro Garcia Morelli M ESP Aeros Combat L 13.2 10,00 72,2 72
87 93 Dario Tomasic M CRO Icaro Laminar Zero 9 10,00 72,2 72
87 88 Virpi Nieminen F FIN Icaro Laminar Zero 7 10,00 72,2 72

Notes

Id Name Note
87 Takamitsu Oga NO TRACK
65 Maxim Usachev NO TRACK

Pilots absent from task (ABS)

Id Name

Pilots not yet processed (NYP)

Id Name

Task statistics

param value
ss_distance 86.015
task_distance 89.038
no_of_pilots_present 91
no_of_pilots_flying 91
no_of_pilots_lo 21
no_of_pilots_reaching_nom_dist 78
no_of_pilots_reaching_es 70
no_of_pilots_reaching_goal 70
sum_flown_distance 7063.858
best_dist 89.038
best_time 1.95555555555556
worst_time 3.41305555555556
no_of_pilots_in_competition 91
sum_dist_over_min 6203.564
first_start_time 2010-07-13T14:30:00+02:00
first_finish_time 2010-07-13T16:57:20+02:00
max_time_to_get_time_points 3.35396735311576
no_of_pilots_with_time_points 67
k 0.736263736263736
arrival_weight 0.0789463018414987
departure_weight 0
leading_weight 0.110524822578098
time_weight 0.442099290312392
distance_weight 0.368429585268011
smallest_leading_coefficient 1.78693959003072
available_points_distance 368.429585268011
available_points_time 442.099290312393
available_points_departure 0
available_points_leading 110.524822578098
available_points_arrival 78.9463018414987
time_validity 1
launch_validity 1
distance_validity 1
day_quality 1

Scoring formula settings

param value
id GAP2008
use_distance_points 1
use_time_points 1
use_departure_points 0
use_leading_points 1
use_arrival_position_points 1
use_arrival_time_points 0
min_dist 10
nom_dist 60
nom_time 1.5
nom_goal 0.3
day_quality 0
time_points_if_not_in_goal 0.8
jump_the_gun_factor 10
use_1000_points_for_max_day_quality 0
normalize_1000_before_day_quality 0
time_validity_based_on_pilot_with_speed_rank 1